Bighorn, Montana
Current Conditions -  °F | °C
As of 10:53 AM on Friday 31 Oct 2014 (Local Time) from KBIL Reporting Station
Scattered Clouds Scattered Clouds  
Wind Chill: 44°   Ceiling: Unl
Heat Index: 44°   Visibility: 10mi
Dew Point: 31°   Wind: 0mph
Humidity: 60%   Direction: NA
Pressure: 29.95"   Gusts: NA
Location:  46.16°N, 107.45°W
Report Text: KBIL 311653Z 00000KT 10SM FEW120 SCT250 07/M01 A2995 RMK AO2 SLP151 T00671006
Loading
Personal Weather Stations






























Interactive Weather Map
Tropical Storm Tracking
New forecast layout! Learn more

10-Day Weather Forecast

Advertisements
Track Severe Weather on mobile